Terminal Aerodrome Forecast
Issued by NWS

Home | Current Version | Previous Version | Text Only | Print | Product List | Glossary On
Versions: 1 2 3 4 5 6 7 8 9 10 11 12 13 14
000
FTUS45 KFGZ 022320
TAFSEZ
TAF
KSEZ 022320Z 0300/0324 19010KT P6SM SCT050 BKN250
     FM030200 04008KT P6SM FEW050 FEW250
     FM031800 19010G15KT P6SM BKN050 BKN250
      AMD NOT SKED=

USA.gov is the U.S. government's official web portal to all federal, state and local government web resources and services.